sensor_id;sensor_type;location;lat;lon;timestamp;P1;durP1;ratioP1;P2;durP2;ratioP2
62894;SDS011;49204;44.916;37.998;2023-01-23T00:01:39;74.37;;;23.10;;
62894;SDS011;49204;44.916;37.998;2023-01-23T00:04:08;53.08;;;15.88;;
62894;SDS011;49204;44.916;37.998;2023-01-23T00:06:38;62.67;;;21.77;;
62894;SDS011;49204;44.916;37.998;2023-01-23T00:09:07;112.80;;;43.92;;
62894;SDS011;49204;44.916;37.998;2023-01-23T00:11:37;137.43;;;59.20;;
62894;SDS011;49204;44.916;37.998;2023-01-23T00:14:05;126.78;;;51.45;;
62894;SDS011;49204;44.916;37.998;2023-01-23T00:16:34;109.97;;;48.33;;
62894;SDS011;49204;44.916;37.998;2023-01-23T00:19:03;95.85;;;38.95;;
62894;SDS011;49204;44.916;37.998;2023-01-23T00:21:31;88.27;;;31.62;;
62894;SDS011;49204;44.916;37.998;2023-01-23T00:24:00;71.05;;;26.62;;
62894;SDS011;49204;44.916;37.998;2023-01-23T00:26:29;69.70;;;26.45;;
62894;SDS011;49204;44.916;37.998;2023-01-23T00:28:59;64.17;;;27.62;;
62894;SDS011;49204;44.916;37.998;2023-01-23T00:31:31;56.68;;;23.92;;
62894;SDS011;49204;44.916;37.998;2023-01-23T00:34:01;78.10;;;29.65;;
62894;SDS011;49204;44.916;37.998;2023-01-23T00:36:34;74.37;;;26.23;;
62894;SDS011;49204;44.916;37.998;2023-01-23T00:39:05;54.95;;;21.12;;
62894;SDS011;49204;44.916;37.998;2023-01-23T00:41:35;49.60;;;19.48;;
62894;SDS011;49204;44.916;37.998;2023-01-23T00:44:04;56.80;;;19.82;;
62894;SDS011;49204;44.916;37.998;2023-01-23T00:46:32;35.17;;;13.15;;
62894;SDS011;49204;44.916;37.998;2023-01-23T00:49:01;63.45;;;20.20;;
62894;SDS011;49204;44.916;37.998;2023-01-23T00:51:30;47.70;;;17.92;;
62894;SDS011;49204;44.916;37.998;2023-01-23T00:53:59;44.55;;;17.00;;
62894;SDS011;49204;44.916;37.998;2023-01-23T00:56:28;43.20;;;16.87;;
62894;SDS011;49204;44.916;37.998;2023-01-23T00:58:57;57.58;;;18.62;;
62894;SDS011;49204;44.916;37.998;2023-01-23T01:01:26;28.92;;;10.72;;
62894;SDS011;49204;44.916;37.998;2023-01-23T01:03:56;37.10;;;14.75;;
62894;SDS011;49204;44.916;37.998;2023-01-23T01:06:25;44.83;;;16.25;;
62894;SDS011;49204;44.916;37.998;2023-01-23T01:08:56;50.52;;;18.10;;
62894;SDS011;49204;44.916;37.998;2023-01-23T01:11:25;45.70;;;16.02;;
62894;SDS011;49204;44.916;37.998;2023-01-23T01:13:56;31.55;;;13.20;;
62894;SDS011;49204;44.916;37.998;2023-01-23T01:16:24;45.90;;;15.10;;
62894;SDS011;49204;44.916;37.998;2023-01-23T01:18:53;42.85;;;15.75;;
62894;SDS011;49204;44.916;37.998;2023-01-23T01:21:22;42.75;;;16.30;;
62894;SDS011;49204;44.916;37.998;2023-01-23T01:23:50;39.08;;;13.98;;
62894;SDS011;49204;44.916;37.998;2023-01-23T01:26:19;41.30;;;16.93;;
62894;SDS011;49204;44.916;37.998;2023-01-23T01:28:49;49.35;;;18.32;;
62894;SDS011;49204;44.916;37.998;2023-01-23T01:31:17;36.25;;;15.23;;
62894;SDS011;49204;44.916;37.998;2023-01-23T01:33:46;39.88;;;14.58;;
62894;SDS011;49204;44.916;37.998;2023-01-23T01:36:18;39.33;;;15.68;;
62894;SDS011;49204;44.916;37.998;2023-01-23T01:38:49;42.75;;;12.18;;
62894;SDS011;49204;44.916;37.998;2023-01-23T01:41:18;48.15;;;14.98;;
62894;SDS011;49204;44.916;37.998;2023-01-23T01:43:47;60.58;;;19.57;;
62894;SDS011;49204;44.916;37.998;2023-01-23T01:46:22;59.95;;;19.12;;
62894;SDS011;49204;44.916;37.998;2023-01-23T01:49:12;37.40;;;13.20;;
62894;SDS011;49204;44.916;37.998;2023-01-23T01:51:44;52.67;;;16.48;;
62894;SDS011;49204;44.916;37.998;2023-01-23T01:55:04;44.88;;;16.62;;
62894;SDS011;49204;44.916;37.998;2023-01-23T01:56:51;53.10;;;16.80;;
62894;SDS011;49204;44.916;37.998;2023-01-23T01:59:52;52.17;;;17.32;;
62894;SDS011;49204;44.916;37.998;2023-01-23T02:02:25;55.92;;;19.25;;
62894;SDS011;49204;44.916;37.998;2023-01-23T02:05:00;64.27;;;18.27;;
62894;SDS011;49204;44.916;37.998;2023-01-23T02:07:34;52.67;;;19.27;;
62894;SDS011;49204;44.916;37.998;2023-01-23T02:10:10;49.00;;;18.35;;
62894;SDS011;49204;44.916;37.998;2023-01-23T02:12:45;65.70;;;20.75;;
62894;SDS011;49204;44.916;37.998;2023-01-23T02:15:15;48.70;;;18.55;;
62894;SDS011;49204;44.916;37.998;2023-01-23T02:17:47;54.35;;;18.92;;
62894;SDS011;49204;44.916;37.998;2023-01-23T02:30:46;51.28;;;18.50;;
62894;SDS011;49204;44.916;37.998;2023-01-23T02:35:50;47.83;;;15.93;;
62894;SDS011;49204;44.916;37.998;2023-01-23T02:38:21;52.15;;;16.97;;
62894;SDS011;49204;44.916;37.998;2023-01-23T02:40:55;43.05;;;16.48;;
62894;SDS011;49204;44.916;37.998;2023-01-23T02:43:27;51.90;;;15.95;;
62894;SDS011;49204;44.916;37.998;2023-01-23T02:46:05;47.90;;;16.48;;
62894;SDS011;49204;44.916;37.998;2023-01-23T02:48:36;49.50;;;17.62;;
62894;SDS011;49204;44.916;37.998;2023-01-23T02:51:09;31.15;;;13.55;;
62894;SDS011;49204;44.916;37.998;2023-01-23T02:53:38;39.83;;;17.00;;
62894;SDS011;49204;44.916;37.998;2023-01-23T02:56:08;42.13;;;14.87;;
62894;SDS011;49204;44.916;37.998;2023-01-23T02:58:37;45.50;;;11.00;;
62894;SDS011;49204;44.916;37.998;2023-01-23T03:01:23;55.52;;;17.48;;
62894;SDS011;49204;44.916;37.998;2023-01-23T03:03:53;42.90;;;16.50;;
62894;SDS011;49204;44.916;37.998;2023-01-23T03:06:22;38.05;;;15.43;;
62894;SDS011;49204;44.916;37.998;2023-01-23T03:08:51;26.65;;;11.53;;
62894;SDS011;49204;44.916;37.998;2023-01-23T03:11:22;58.20;;;18.52;;
62894;SDS011;49204;44.916;37.998;2023-01-23T03:13:51;54.03;;;15.93;;
62894;SDS011;49204;44.916;37.998;2023-01-23T03:16:20;82.25;;;21.52;;
62894;SDS011;49204;44.916;37.998;2023-01-23T03:18:48;69.62;;;16.37;;
62894;SDS011;49204;44.916;37.998;2023-01-23T03:21:17;72.27;;;20.70;;
62894;SDS011;49204;44.916;37.998;2023-01-23T03:23:46;69.22;;;19.62;;
62894;SDS011;49204;44.916;37.998;2023-01-23T03:26:14;67.62;;;16.87;;
62894;SDS011;49204;44.916;37.998;2023-01-23T03:28:43;47.62;;;16.55;;
62894;SDS011;49204;44.916;37.998;2023-01-23T03:31:30;69.58;;;19.40;;
62894;SDS011;49204;44.916;37.998;2023-01-23T03:33:59;67.80;;;21.15;;
62894;SDS011;49204;44.916;37.998;2023-01-23T03:36:28;54.42;;;20.00;;
62894;SDS011;49204;44.916;37.998;2023-01-23T03:38:59;78.60;;;22.45;;
62894;SDS011;49204;44.916;37.998;2023-01-23T03:41:46;116.33;;;22.65;;
62894;SDS011;49204;44.916;37.998;2023-01-23T03:44:16;175.72;;;26.15;;
62894;SDS011;49204;44.916;37.998;2023-01-23T03:46:49;78.17;;;21.68;;
62894;SDS011;49204;44.916;37.998;2023-01-23T03:49:19;119.23;;;20.27;;
62894;SDS011;49204;44.916;37.998;2023-01-23T03:51:49;270.77;;;31.82;;
62894;SDS011;49204;44.916;37.998;2023-01-23T03:54:19;217.57;;;31.93;;
62894;SDS011;49204;44.916;37.998;2023-01-23T03:56:47;252.87;;;28.98;;
62894;SDS011;49204;44.916;37.998;2023-01-23T03:59:26;152.78;;;28.62;;
62894;SDS011;49204;44.916;37.998;2023-01-23T04:01:55;274.90;;;31.82;;
62894;SDS011;49204;44.916;37.998;2023-01-23T04:04:25;163.05;;;23.45;;
62894;SDS011;49204;44.916;37.998;2023-01-23T04:07:03;237.08;;;29.98;;
62894;SDS011;49204;44.916;37.998;2023-01-23T04:09:33;258.65;;;32.88;;
62894;SDS011;49204;44.916;37.998;2023-01-23T04:12:02;323.73;;;35.28;;
62894;SDS011;49204;44.916;37.998;2023-01-23T04:14:32;376.27;;;36.28;;
62894;SDS011;49204;44.916;37.998;2023-01-23T04:17:03;161.90;;;28.70;;
62894;SDS011;49204;44.916;37.998;2023-01-23T04:19:33;218.88;;;26.95;;
62894;SDS011;49204;44.916;37.998;2023-01-23T04:22:02;98.27;;;20.92;;
62894;SDS011;49204;44.916;37.998;2023-01-23T04:24:33;148.72;;;24.10;;
62894;SDS011;49204;44.916;37.998;2023-01-23T04:27:01;81.90;;;19.37;;
62894;SDS011;49204;44.916;37.998;2023-01-23T04:29:30;104.30;;;20.57;;
62894;SDS011;49204;44.916;37.998;2023-01-23T04:32:01;84.75;;;20.10;;
62894;SDS011;49204;44.916;37.998;2023-01-23T04:34:31;175.03;;;26.68;;
62894;SDS011;49204;44.916;37.998;2023-01-23T04:37:00;101.30;;;21.42;;
62894;SDS011;49204;44.916;37.998;2023-01-23T04:39:31;96.65;;;23.18;;
62894;SDS011;49204;44.916;37.998;2023-01-23T04:42:00;190.00;;;26.73;;
62894;SDS011;49204;44.916;37.998;2023-01-23T04:44:31;79.90;;;20.85;;
62894;SDS011;49204;44.916;37.998;2023-01-23T04:47:04;88.60;;;18.98;;
62894;SDS011;49204;44.916;37.998;2023-01-23T04:49:33;71.97;;;18.40;;
62894;SDS011;49204;44.916;37.998;2023-01-23T04:52:01;116.53;;;18.60;;
62894;SDS011;49204;44.916;37.998;2023-01-23T04:54:32;70.35;;;20.27;;
62894;SDS011;49204;44.916;37.998;2023-01-23T04:57:01;141.75;;;23.25;;
62894;SDS011;49204;44.916;37.998;2023-01-23T04:59:30;74.97;;;19.45;;
62894;SDS011;49204;44.916;37.998;2023-01-23T05:01:59;135.40;;;21.45;;
62894;SDS011;49204;44.916;37.998;2023-01-23T05:04:29;113.88;;;21.45;;
62894;SDS011;49204;44.916;37.998;2023-01-23T05:06:58;119.97;;;23.22;;
62894;SDS011;49204;44.916;37.998;2023-01-23T05:09:28;67.08;;;20.43;;
62894;SDS011;49204;44.916;37.998;2023-01-23T05:11:57;145.30;;;23.47;;
62894;SDS011;49204;44.916;37.998;2023-01-23T05:14:28;203.10;;;25.97;;
62894;SDS011;49204;44.916;37.998;2023-01-23T05:16:56;165.75;;;23.83;;
62894;SDS011;49204;44.916;37.998;2023-01-23T05:19:26;173.80;;;26.75;;
62894;SDS011;49204;44.916;37.998;2023-01-23T05:21:56;180.65;;;23.18;;
62894;SDS011;49204;44.916;37.998;2023-01-23T05:24:25;67.45;;;17.12;;
62894;SDS011;49204;44.916;37.998;2023-01-23T05:26:54;161.43;;;25.30;;
62894;SDS011;49204;44.916;37.998;2023-01-23T05:29:26;89.77;;;20.10;;
62894;SDS011;49204;44.916;37.998;2023-01-23T05:32:02;358.07;;;37.98;;
62894;SDS011;49204;44.916;37.998;2023-01-23T05:34:40;235.25;;;29.35;;
62894;SDS011;49204;44.916;37.998;2023-01-23T05:37:16;47.60;;;15.43;;
62894;SDS011;49204;44.916;37.998;2023-01-23T05:39:47;101.50;;;21.82;;
62894;SDS011;49204;44.916;37.998;2023-01-23T05:42:18;157.00;;;22.58;;
62894;SDS011;49204;44.916;37.998;2023-01-23T05:44:50;88.87;;;17.40;;
62894;SDS011;49204;44.916;37.998;2023-01-23T05:47:24;162.45;;;19.85;;
62894;SDS011;49204;44.916;37.998;2023-01-23T05:49:54;68.67;;;14.28;;
62894;SDS011;49204;44.916;37.998;2023-01-23T05:52:24;123.42;;;18.25;;
62894;SDS011;49204;44.916;37.998;2023-01-23T05:54:53;43.83;;;15.83;;
62894;SDS011;49204;44.916;37.998;2023-01-23T05:57:22;214.40;;;24.52;;
62894;SDS011;49204;44.916;37.998;2023-01-23T06:00:01;129.68;;;24.05;;
62894;SDS011;49204;44.916;37.998;2023-01-23T06:02:40;217.30;;;23.65;;
62894;SDS011;49204;44.916;37.998;2023-01-23T06:05:26;300.20;;;29.00;;
62894;SDS011;49204;44.916;37.998;2023-01-23T06:07:57;280.00;;;34.15;;
62894;SDS011;49204;44.916;37.998;2023-01-23T06:10:28;140.47;;;23.20;;
62894;SDS011;49204;44.916;37.998;2023-01-23T06:12:56;241.15;;;27.52;;
62894;SDS011;49204;44.916;37.998;2023-01-23T06:15:25;238.37;;;26.07;;
62894;SDS011;49204;44.916;37.998;2023-01-23T06:17:54;110.17;;;23.05;;
62894;SDS011;49204;44.916;37.998;2023-01-23T06:20:24;48.50;;;12.68;;
62894;SDS011;49204;44.916;37.998;2023-01-23T06:22:52;234.45;;;29.72;;
62894;SDS011;49204;44.916;37.998;2023-01-23T06:25:21;80.00;;;19.92;;
62894;SDS011;49204;44.916;37.998;2023-01-23T06:27:51;55.35;;;15.48;;
62894;SDS011;49204;44.916;37.998;2023-01-23T06:30:21;65.32;;;20.12;;
62894;SDS011;49204;44.916;37.998;2023-01-23T06:32:50;67.40;;;18.10;;
62894;SDS011;49204;44.916;37.998;2023-01-23T06:35:21;227.65;;;29.60;;
62894;SDS011;49204;44.916;37.998;2023-01-23T06:38:05;179.23;;;26.17;;
62894;SDS011;49204;44.916;37.998;2023-01-23T06:40:21;149.32;;;29.45;;
62894;SDS011;49204;44.916;37.998;2023-01-23T06:42:58;146.13;;;24.35;;
62894;SDS011;49204;44.916;37.998;2023-01-23T06:45:29;95.87;;;20.10;;
62894;SDS011;49204;44.916;37.998;2023-01-23T06:48:16;137.62;;;23.73;;
62894;SDS011;49204;44.916;37.998;2023-01-23T06:50:46;129.38;;;20.82;;
62894;SDS011;49204;44.916;37.998;2023-01-23T06:53:15;81.10;;;22.13;;
62894;SDS011;49204;44.916;37.998;2023-01-23T06:55:45;112.47;;;23.55;;
62894;SDS011;49204;44.916;37.998;2023-01-23T06:58:15;82.57;;;20.80;;
62894;SDS011;49204;44.916;37.998;2023-01-23T07:00:44;111.72;;;19.32;;
62894;SDS011;49204;44.916;37.998;2023-01-23T07:03:15;85.50;;;20.17;;
62894;SDS011;49204;44.916;37.998;2023-01-23T07:05:44;62.50;;;16.65;;
62894;SDS011;49204;44.916;37.998;2023-01-23T07:08:13;71.33;;;20.23;;
62894;SDS011;49204;44.916;37.998;2023-01-23T07:10:48;130.27;;;24.07;;
62894;SDS011;49204;44.916;37.998;2023-01-23T07:13:18;95.97;;;20.72;;
62894;SDS011;49204;44.916;37.998;2023-01-23T07:15:51;94.17;;;22.87;;
62894;SDS011;49204;44.916;37.998;2023-01-23T07:18:23;92.50;;;17.23;;
62894;SDS011;49204;44.916;37.998;2023-01-23T07:20:53;62.83;;;19.80;;
62894;SDS011;49204;44.916;37.998;2023-01-23T07:23:23;105.17;;;20.00;;
62894;SDS011;49204;44.916;37.998;2023-01-23T07:25:56;62.75;;;18.42;;
62894;SDS011;49204;44.916;37.998;2023-01-23T07:28:29;124.40;;;22.82;;
62894;SDS011;49204;44.916;37.998;2023-01-23T07:30:58;55.10;;;17.95;;
62894;SDS011;49204;44.916;37.998;2023-01-23T07:33:26;98.03;;;19.15;;
62894;SDS011;49204;44.916;37.998;2023-01-23T07:35:55;73.07;;;19.48;;
62894;SDS011;49204;44.916;37.998;2023-01-23T07:38:25;71.05;;;17.52;;
62894;SDS011;49204;44.916;37.998;2023-01-23T07:40:56;67.50;;;20.85;;
62894;SDS011;49204;44.916;37.998;2023-01-23T07:43:28;47.75;;;14.30;;
62894;SDS011;49204;44.916;37.998;2023-01-23T07:45:59;78.97;;;22.15;;
62894;SDS011;49204;44.916;37.998;2023-01-23T07:48:30;68.85;;;20.00;;
62894;SDS011;49204;44.916;37.998;2023-01-23T07:51:00;48.75;;;15.75;;
62894;SDS011;49204;44.916;37.998;2023-01-23T07:53:30;56.55;;;16.45;;
62894;SDS011;49204;44.916;37.998;2023-01-23T07:56:02;45.23;;;15.50;;
62894;SDS011;49204;44.916;37.998;2023-01-23T07:58:33;83.65;;;21.17;;
62894;SDS011;49204;44.916;37.998;2023-01-23T08:01:06;73.97;;;22.17;;
62894;SDS011;49204;44.916;37.998;2023-01-23T08:03:38;65.08;;;22.40;;
62894;SDS011;49204;44.916;37.998;2023-01-23T08:06:08;70.80;;;23.15;;
62894;SDS011;49204;44.916;37.998;2023-01-23T08:08:41;74.62;;;23.05;;
62894;SDS011;49204;44.916;37.998;2023-01-23T08:11:11;75.57;;;21.65;;
62894;SDS011;49204;44.916;37.998;2023-01-23T08:13:40;70.50;;;17.60;;
62894;SDS011;49204;44.916;37.998;2023-01-23T08:16:09;62.08;;;19.85;;
62894;SDS011;49204;44.916;37.998;2023-01-23T08:18:37;72.22;;;21.27;;
62894;SDS011;49204;44.916;37.998;2023-01-23T08:21:06;36.50;;;12.37;;
62894;SDS011;49204;44.916;37.998;2023-01-23T08:23:35;55.92;;;18.57;;
62894;SDS011;49204;44.916;37.998;2023-01-23T08:26:06;78.55;;;21.57;;
62894;SDS011;49204;44.916;37.998;2023-01-23T08:28:37;59.90;;;19.70;;
62894;SDS011;49204;44.916;37.998;2023-01-23T08:31:14;52.83;;;16.87;;
62894;SDS011;49204;44.916;37.998;2023-01-23T08:33:39;55.67;;;16.90;;
62894;SDS011;49204;44.916;37.998;2023-01-23T08:36:08;47.30;;;16.55;;
62894;SDS011;49204;44.916;37.998;2023-01-23T08:38:38;44.63;;;15.10;;
62894;SDS011;49204;44.916;37.998;2023-01-23T08:41:07;22.32;;;9.98;;
62894;SDS011;49204;44.916;37.998;2023-01-23T08:43:37;48.92;;;15.65;;
62894;SDS011;49204;44.916;37.998;2023-01-23T08:46:09;32.28;;;11.90;;
62894;SDS011;49204;44.916;37.998;2023-01-23T08:48:38;57.90;;;17.35;;
62894;SDS011;49204;44.916;37.998;2023-01-23T08:51:08;50.92;;;17.62;;
62894;SDS011;49204;44.916;37.998;2023-01-23T08:53:39;56.55;;;16.90;;
62894;SDS011;49204;44.916;37.998;2023-01-23T08:56:20;50.43;;;16.93;;
62894;SDS011;49204;44.916;37.998;2023-01-23T08:58:46;55.67;;;18.65;;
62894;SDS011;49204;44.916;37.998;2023-01-23T09:01:19;58.02;;;18.48;;
62894;SDS011;49204;44.916;37.998;2023-01-23T09:03:55;53.63;;;17.23;;
62894;SDS011;49204;44.916;37.998;2023-01-23T09:06:20;46.23;;;16.12;;
62894;SDS011;49204;44.916;37.998;2023-01-23T09:08:49;57.23;;;17.67;;
62894;SDS011;49204;44.916;37.998;2023-01-23T09:11:18;48.10;;;16.60;;
62894;SDS011;49204;44.916;37.998;2023-01-23T09:13:48;52.43;;;19.17;;
62894;SDS011;49204;44.916;37.998;2023-01-23T09:16:17;56.85;;;17.85;;
62894;SDS011;49204;44.916;37.998;2023-01-23T09:18:47;55.88;;;19.67;;
62894;SDS011;49204;44.916;37.998;2023-01-23T09:21:16;61.50;;;18.80;;
62894;SDS011;49204;44.916;37.998;2023-01-23T09:23:45;44.75;;;15.63;;
62894;SDS011;49204;44.916;37.998;2023-01-23T09:26:13;47.58;;;13.70;;
62894;SDS011;49204;44.916;37.998;2023-01-23T09:28:45;52.55;;;19.37;;
62894;SDS011;49204;44.916;37.998;2023-01-23T09:31:15;55.80;;;18.70;;
62894;SDS011;49204;44.916;37.998;2023-01-23T09:33:44;31.68;;;10.05;;
62894;SDS011;49204;44.916;37.998;2023-01-23T09:36:14;44.53;;;15.18;;
62894;SDS011;49204;44.916;37.998;2023-01-23T09:38:43;39.70;;;12.95;;
62894;SDS011;49204;44.916;37.998;2023-01-23T09:41:18;40.00;;;14.58;;
62894;SDS011;49204;44.916;37.998;2023-01-23T09:49:18;32.10;;;12.37;;
62894;SDS011;49204;44.916;37.998;2023-01-23T09:51:55;45.67;;;16.27;;
62894;SDS011;49204;44.916;37.998;2023-01-23T09:57:42;33.40;;;14.05;;
62894;SDS011;49204;44.916;37.998;2023-01-23T10:00:12;44.63;;;13.32;;
62894;SDS011;49204;44.916;37.998;2023-01-23T10:02:42;42.27;;;16.15;;
62894;SDS011;49204;44.916;37.998;2023-01-23T10:05:16;35.52;;;11.48;;
62894;SDS011;49204;44.916;37.998;2023-01-23T10:07:57;50.35;;;16.95;;
62894;SDS011;49204;44.916;37.998;2023-01-23T10:10:39;42.85;;;15.15;;
62894;SDS011;49204;44.916;37.998;2023-01-23T10:13:46;35.15;;;12.90;;
62894;SDS011;49204;44.916;37.998;2023-01-23T10:16:31;54.53;;;16.75;;
62894;SDS011;49204;44.916;37.998;2023-01-23T10:19:05;40.98;;;12.50;;
62894;SDS011;49204;44.916;37.998;2023-01-23T10:21:45;36.33;;;13.60;;
62894;SDS011;49204;44.916;37.998;2023-01-23T10:24:29;37.80;;;14.18;;
62894;SDS011;49204;44.916;37.998;2023-01-23T10:27:02;37.05;;;12.90;;
62894;SDS011;49204;44.916;37.998;2023-01-23T10:32:19;27.45;;;11.35;;
62894;SDS011;49204;44.916;37.998;2023-01-23T10:35:01;38.23;;;12.55;;
62894;SDS011;49204;44.916;37.998;2023-01-23T10:40:27;39.33;;;15.85;;
62894;SDS011;49204;44.916;37.998;2023-01-23T10:43:20;39.67;;;14.75;;
62894;SDS011;49204;44.916;37.998;2023-01-23T10:45:46;43.73;;;15.68;;
62894;SDS011;49204;44.916;37.998;2023-01-23T10:54:12;43.23;;;14.65;;
62894;SDS011;49204;44.916;37.998;2023-01-23T10:59:29;44.98;;;14.58;;
62894;SDS011;49204;44.916;37.998;2023-01-23T11:04:44;45.20;;;15.80;;
62894;SDS011;49204;44.916;37.998;2023-01-23T11:07:19;40.20;;;14.25;;
62894;SDS011;49204;44.916;37.998;2023-01-23T11:09:59;35.70;;;11.20;;
62894;SDS011;49204;44.916;37.998;2023-01-23T11:12:31;39.65;;;14.78;;
62894;SDS011;49204;44.916;37.998;2023-01-23T11:15:12;32.13;;;11.20;;
62894;SDS011;49204;44.916;37.998;2023-01-23T11:17:42;42.35;;;14.30;;
62894;SDS011;49204;44.916;37.998;2023-01-23T11:20:34;39.40;;;14.75;;
62894;SDS011;49204;44.916;37.998;2023-01-23T11:25:49;41.25;;;14.10;;
62894;SDS011;49204;44.916;37.998;2023-01-23T11:28:30;42.40;;;14.53;;
62894;SDS011;49204;44.916;37.998;2023-01-23T11:33:42;43.33;;;14.78;;
62894;SDS011;49204;44.916;37.998;2023-01-23T11:36:35;40.83;;;15.25;;
62894;SDS011;49204;44.916;37.998;2023-01-23T11:41:38;37.50;;;13.72;;
62894;SDS011;49204;44.916;37.998;2023-01-23T11:44:07;46.13;;;15.45;;
62894;SDS011;49204;44.916;37.998;2023-01-23T12:01:08;42.80;;;15.20;;
62894;SDS011;49204;44.916;37.998;2023-01-23T12:10:16;39.67;;;15.28;;
62894;SDS011;49204;44.916;37.998;2023-01-23T12:16:02;48.15;;;17.10;;
62894;SDS011;49204;44.916;37.998;2023-01-23T12:26:33;42.15;;;13.98;;
62894;SDS011;49204;44.916;37.998;2023-01-23T12:32:09;42.48;;;14.43;;
62894;SDS011;49204;44.916;37.998;2023-01-23T12:37:35;37.75;;;11.88;;
62894;SDS011;49204;44.916;37.998;2023-01-23T12:40:55;32.53;;;11.95;;
62894;SDS011;49204;44.916;37.998;2023-01-23T12:45:30;39.95;;;14.07;;
62894;SDS011;49204;44.916;37.998;2023-01-23T12:50:44;33.83;;;11.25;;
62894;SDS011;49204;44.916;37.998;2023-01-23T12:53:19;29.05;;;10.95;;
62894;SDS011;49204;44.916;37.998;2023-01-23T12:58:33;42.40;;;12.68;;
62894;SDS011;49204;44.916;37.998;2023-01-23T13:04:14;34.03;;;12.37;;
62894;SDS011;49204;44.916;37.998;2023-01-23T13:06:54;35.10;;;11.65;;
62894;SDS011;49204;44.916;37.998;2023-01-23T13:12:21;36.80;;;11.68;;
62894;SDS011;49204;44.916;37.998;2023-01-23T13:14:52;31.75;;;11.78;;
62894;SDS011;49204;44.916;37.998;2023-01-23T13:20:18;44.40;;;12.43;;
62894;SDS011;49204;44.916;37.998;2023-01-23T13:28:52;41.48;;;12.20;;
62894;SDS011;49204;44.916;37.998;2023-01-23T13:31:43;44.60;;;14.90;;
62894;SDS011;49204;44.916;37.998;2023-01-23T13:36:50;27.75;;;11.50;;
62894;SDS011;49204;44.916;37.998;2023-01-23T13:39:24;33.50;;;10.35;;
62894;SDS011;49204;44.916;37.998;2023-01-23T13:47:54;34.40;;;13.58;;
62894;SDS011;49204;44.916;37.998;2023-01-23T13:50:49;34.98;;;12.30;;
62894;SDS011;49204;44.916;37.998;2023-01-23T13:53:21;36.40;;;12.10;;
62894;SDS011;49204;44.916;37.998;2023-01-23T13:56:10;45.70;;;14.80;;
62894;SDS011;49204;44.916;37.998;2023-01-23T13:59:13;36.23;;;15.80;;
62894;SDS011;49204;44.916;37.998;2023-01-23T14:01:47;41.45;;;13.08;;
62894;SDS011;49204;44.916;37.998;2023-01-23T14:04:59;40.08;;;12.47;;
62894;SDS011;49204;44.916;37.998;2023-01-23T14:07:30;44.48;;;14.43;;
62894;SDS011;49204;44.916;37.998;2023-01-23T14:10:11;40.78;;;14.35;;
62894;SDS011;49204;44.916;37.998;2023-01-23T14:12:49;43.05;;;14.78;;
62894;SDS011;49204;44.916;37.998;2023-01-23T14:15:23;44.10;;;15.00;;
62894;SDS011;49204;44.916;37.998;2023-01-23T14:18:46;45.55;;;13.80;;
62894;SDS011;49204;44.916;37.998;2023-01-23T14:20:51;42.17;;;14.30;;
62894;SDS011;49204;44.916;37.998;2023-01-23T14:23:28;38.48;;;13.83;;
62894;SDS011;49204;44.916;37.998;2023-01-23T14:25:55;41.83;;;15.18;;
62894;SDS011;49204;44.916;37.998;2023-01-23T14:28:24;44.98;;;15.15;;
62894;SDS011;49204;44.916;37.998;2023-01-23T14:30:54;48.15;;;15.85;;
62894;SDS011;49204;44.916;37.998;2023-01-23T14:33:25;42.98;;;14.40;;
62894;SDS011;49204;44.916;37.998;2023-01-23T14:35:55;50.70;;;15.60;;
62894;SDS011;49204;44.916;37.998;2023-01-23T14:38:30;69.58;;;18.25;;
62894;SDS011;49204;44.916;37.998;2023-01-23T14:41:03;49.73;;;14.23;;
62894;SDS011;49204;44.916;37.998;2023-01-23T14:46:04;40.43;;;13.30;;
62894;SDS011;49204;44.916;37.998;2023-01-23T14:48:35;52.25;;;15.55;;
62894;SDS011;49204;44.916;37.998;2023-01-23T14:51:13;49.73;;;13.58;;
62894;SDS011;49204;44.916;37.998;2023-01-23T14:53:54;46.25;;;16.23;;
62894;SDS011;49204;44.916;37.998;2023-01-23T14:56:29;44.45;;;15.03;;
62894;SDS011;49204;44.916;37.998;2023-01-23T14:59:04;53.75;;;16.10;;
62894;SDS011;49204;44.916;37.998;2023-01-23T15:01:31;57.62;;;17.00;;
62894;SDS011;49204;44.916;37.998;2023-01-23T15:04:04;55.23;;;18.02;;
62894;SDS011;49204;44.916;37.998;2023-01-23T15:06:35;57.10;;;18.32;;
62894;SDS011;49204;44.916;37.998;2023-01-23T15:09:05;72.53;;;22.10;;
62894;SDS011;49204;44.916;37.998;2023-01-23T15:11:44;55.95;;;20.55;;
62894;SDS011;49204;44.916;37.998;2023-01-23T15:14:20;52.90;;;21.85;;
62894;SDS011;49204;44.916;37.998;2023-01-23T15:17:05;61.70;;;22.17;;
62894;SDS011;49204;44.916;37.998;2023-01-23T15:19:28;65.75;;;23.00;;
62894;SDS011;49204;44.916;37.998;2023-01-23T15:24:47;54.53;;;17.40;;
62894;SDS011;49204;44.916;37.998;2023-01-23T15:27:23;71.30;;;21.60;;
62894;SDS011;49204;44.916;37.998;2023-01-23T15:32:59;67.08;;;23.85;;
62894;SDS011;49204;44.916;37.998;2023-01-23T15:35:37;64.87;;;24.35;;
62894;SDS011;49204;44.916;37.998;2023-01-23T15:38:05;51.77;;;19.17;;
62894;SDS011;49204;44.916;37.998;2023-01-23T15:40:35;42.65;;;16.07;;
62894;SDS011;49204;44.916;37.998;2023-01-23T15:43:08;46.35;;;16.52;;
62894;SDS011;49204;44.916;37.998;2023-01-23T15:45:39;46.65;;;16.35;;
62894;SDS011;49204;44.916;37.998;2023-01-23T15:48:08;54.00;;;18.80;;
62894;SDS011;49204;44.916;37.998;2023-01-23T15:50:38;60.73;;;20.10;;
62894;SDS011;49204;44.916;37.998;2023-01-23T15:53:11;49.60;;;17.55;;
62894;SDS011;49204;44.916;37.998;2023-01-23T15:55:42;62.27;;;19.10;;
62894;SDS011;49204;44.916;37.998;2023-01-23T15:58:13;73.85;;;23.55;;
62894;SDS011;49204;44.916;37.998;2023-01-23T16:00:46;56.53;;;20.55;;
62894;SDS011;49204;44.916;37.998;2023-01-23T16:03:13;47.50;;;17.23;;
62894;SDS011;49204;44.916;37.998;2023-01-23T16:05:41;51.95;;;18.02;;
62894;SDS011;49204;44.916;37.998;2023-01-23T16:08:16;61.92;;;19.17;;
62894;SDS011;49204;44.916;37.998;2023-01-23T16:10:50;43.92;;;17.85;;
62894;SDS011;49204;44.916;37.998;2023-01-23T16:13:19;53.90;;;18.50;;
62894;SDS011;49204;44.916;37.998;2023-01-23T16:15:47;57.27;;;18.73;;
62894;SDS011;49204;44.916;37.998;2023-01-23T16:18:16;48.13;;;17.73;;
62894;SDS011;49204;44.916;37.998;2023-01-23T16:20:45;56.58;;;17.15;;
62894;SDS011;49204;44.916;37.998;2023-01-23T16:23:21;57.05;;;17.98;;
62894;SDS011;49204;44.916;37.998;2023-01-23T16:25:47;46.53;;;17.73;;
62894;SDS011;49204;44.916;37.998;2023-01-23T16:28:20;51.37;;;19.52;;
62894;SDS011;49204;44.916;37.998;2023-01-23T16:30:52;61.45;;;18.98;;
62894;SDS011;49204;44.916;37.998;2023-01-23T16:33:22;54.30;;;17.05;;
62894;SDS011;49204;44.916;37.998;2023-01-23T16:35:51;45.45;;;18.62;;
62894;SDS011;49204;44.916;37.998;2023-01-23T16:38:24;51.02;;;18.32;;
62894;SDS011;49204;44.916;37.998;2023-01-23T16:40:57;50.63;;;17.80;;